Time;durP1;ratioP1;P1;durP2;ratioP2;P2;SDS_P1;SDS_P2;PMS_P1;PMS_P2;Temp;Humidity;BMP_temperature;BMP_pressure;BME280_temperature;BME280_humidity;BME280_pressure;Samples;Min_cycle;Max_cycle;Signal;HPM_P1;HPM_P2
2022/04/16 00:02:00;;;;;;;11.13;8.30;;;;;;;6.97;72.35;102971.06;4979778;28;20030;-80
2022/04/16 00:04:26;;;;;;;11.15;8.40;;;;;;;6.96;71.93;102967.59;4971280;28;20018;-80
2022/04/16 00:06:52;;;;;;;12.32;8.75;;;;;;;6.94;72.01;102968.41;4978505;28;20074;-80
2022/04/16 00:09:17;;;;;;;13.18;8.68;;;;;;;6.90;72.24;102974.34;4979363;28;20039;-80
2022/04/16 00:11:43;;;;;;;12.05;8.90;;;;;;;6.87;71.92;102971.66;4984213;28;20053;-80
2022/04/16 00:14:08;;;;;;;11.93;8.43;;;;;;;6.86;72.36;102967.31;4984202;28;20033;-80
2022/04/16 00:16:33;;;;;;;12.52;8.98;;;;;;;6.84;72.76;102969.88;4981268;28;20177;-80
2022/04/16 00:18:58;;;;;;;13.48;8.73;;;;;;;6.83;72.47;102963.81;4980181;28;20108;-80
2022/04/16 00:21:24;;;;;;;15.15;9.43;;;;;;;6.86;72.67;102967.31;4987875;28;20041;-80
2022/04/16 00:23:51;;;;;;;12.63;8.30;;;;;;;6.82;73.19;102968.97;4978329;28;20492;-80
2022/04/16 00:26:17;;;;;;;13.38;9.07;;;;;;;6.81;72.58;102975.88;4978717;28;20455;-80
2022/04/16 00:28:42;;;;;;;12.70;8.77;;;;;;;6.78;73.10;102975.78;4981856;28;20117;-80
2022/04/16 00:31:08;;;;;;;12.40;8.95;;;;;;;6.76;72.91;102976.56;4981712;28;20034;-80
2022/04/16 00:33:33;;;;;;;12.38;8.85;;;;;;;6.73;73.24;102969.63;4981049;28;20062;-80
2022/04/16 00:36:00;;;;;;;12.45;8.65;;;;;;;6.73;73.03;102973.94;4979039;28;20030;-80
2022/04/16 00:38:25;;;;;;;13.13;9.43;;;;;;;6.72;73.37;102967.88;4980383;28;20030;-80
2022/04/16 00:40:52;;;;;;;13.77;9.15;;;;;;;6.70;73.64;102966.09;4978138;28;20114;-80
2022/04/16 00:43:25;;;;;;;13.63;8.93;;;;;;;6.67;73.26;102970.34;4960999;28;20037;-80
2022/04/16 00:45:52;;;;;;;13.45;9.27;;;;;;;6.64;73.50;102972.84;4977483;28;20113;-80
2022/04/16 00:48:18;;;;;;;14.55;9.35;;;;;;;6.63;73.32;102971.09;4960222;28;20023;-80
2022/04/16 00:50:43;;;;;;;16.08;10.18;;;;;;;6.60;73.48;102972.75;4982289;28;20170;-80
2022/04/16 00:53:11;;;;;;;13.93;9.50;;;;;;;6.57;73.64;102970.06;4978294;28;20089;-80
2022/04/16 00:55:37;;;;;;;13.68;9.75;;;;;;;6.55;73.73;102961.41;4977246;28;20113;-80
2022/04/16 00:58:03;;;;;;;16.08;10.32;;;;;;;6.52;74.37;102964.78;4980189;28;20165;-80
2022/04/16 01:00:29;;;;;;;15.98;10.63;;;;;;;6.52;74.31;102962.22;4977444;28;20026;-80
2022/04/16 01:02:57;;;;;;;17.50;10.70;;;;;;;6.52;74.41;102968.25;4977242;28;20033;-80
2022/04/16 01:05:23;;;;;;;15.73;10.90;;;;;;;6.51;74.50;102963.03;4976445;28;20165;-80
2022/04/16 01:07:57;;;;;;;16.58;11.23;;;;;;;6.49;73.97;102964.72;4982283;28;20125;-80
2022/04/16 01:10:26;;;;;;;17.13;10.55;;;;;;;6.50;74.33;102964.75;4975981;28;20077;-80
2022/04/16 01:12:55;;;;;;;15.95;10.73;;;;;;;6.48;74.23;102971.59;4981864;28;20167;-80
2022/04/16 01:15:25;;;;;;;18.88;11.88;;;;;;;6.46;74.96;102968.09;4977356;28;20058;-80
2022/04/16 01:17:51;;;;;;;16.70;10.95;;;;;;;6.46;74.63;102969.78;4976632;28;20031;-80
2022/04/16 01:20:18;;;;;;;18.80;11.60;;;;;;;6.43;74.42;102968.03;4976746;28;20030;-80
2022/04/16 01:22:51;;;;;;;18.15;11.73;;;;;;;6.42;74.72;102976.59;4976897;28;20050;-80
2022/04/16 01:25:18;;;;;;;16.98;11.45;;;;;;;6.41;75.08;102979.13;4977987;28;20390;-80
2022/04/16 01:27:45;;;;;;;18.02;11.43;;;;;;;6.37;74.73;102973.91;4975295;28;20058;-80
2022/04/16 01:30:12;;;;;;;16.23;11.10;;;;;;;6.35;75.16;102985.03;4976400;28;20031;-79
2022/04/16 01:32:37;;;;;;;15.63;10.80;;;;;;;6.32;75.00;102987.56;4976834;28;20054;-80
2022/04/16 01:35:05;;;;;;;17.63;11.32;;;;;;;6.31;75.53;102989.25;4975864;28;20470;-80
2022/04/16 01:37:33;;;;;;;16.80;10.65;;;;;;;6.32;75.55;102987.56;4978541;28;20034;-80
2022/04/16 01:40:02;;;;;;;15.73;10.75;;;;;;;6.31;75.35;102988.38;4958596;28;20034;-80
2022/04/16 01:42:32;;;;;;;16.55;10.23;;;;;;;6.30;75.56;102994.38;4979191;28;20034;-80
2022/04/16 01:45:02;;;;;;;16.83;10.77;;;;;;;6.26;75.58;102988.22;4979117;28;20477;-80
2022/04/16 01:47:28;;;;;;;16.52;10.75;;;;;;;6.26;75.63;102992.53;4976264;28;20529;-80
2022/04/16 01:49:55;;;;;;;16.13;11.40;;;;;;;6.24;75.88;103002.81;4975353;28;20481;-80
2022/04/16 01:52:22;;;;;;;17.42;11.07;;;;;;;6.24;75.75;102997.66;4976983;28;20136;-80
2022/04/16 01:54:47;;;;;;;18.63;11.30;;;;;;;6.21;75.50;102997.59;4975594;28;20059;-80
2022/04/16 01:57:13;;;;;;;16.50;11.45;;;;;;;6.20;75.65;102991.53;4976427;28;20065;-80
2022/04/16 01:59:38;;;;;;;16.50;11.27;;;;;;;6.19;75.31;102994.09;4958581;28;20462;-80
2022/04/16 02:02:03;;;;;;;16.30;11.25;;;;;;;6.19;75.60;102989.78;4976284;28;20101;-79
2022/04/16 02:04:29;;;;;;;19.40;12.65;;;;;;;6.18;75.92;102993.19;4975897;28;20104;-79
2022/04/16 02:06:54;;;;;;;17.45;11.60;;;;;;;6.16;76.22;102997.44;4975174;28;20081;-80
2022/04/16 02:09:20;;;;;;;20.23;11.60;;;;;;;6.14;75.91;102988.81;4958762;28;20030;-79
2022/04/16 02:11:45;;;;;;;19.77;12.65;;;;;;;6.16;75.91;102989.69;4977241;28;20031;-79
2022/04/16 02:14:10;;;;;;;18.52;12.13;;;;;;;6.14;75.75;102991.38;4975065;28;20035;-80
2022/04/16 02:16:36;;;;;;;17.55;12.25;;;;;;;6.12;76.41;102992.16;4976328;28;20030;-80
2022/04/16 02:19:01;;;;;;;15.80;11.40;;;;;;;6.12;76.64;102992.16;4975831;28;20062;-80
2022/04/16 02:21:27;;;;;;;21.00;12.50;;;;;;;6.11;76.33;102991.31;4976996;28;20042;-79
2022/04/16 02:23:54;;;;;;;21.15;12.50;;;;;;;6.12;76.36;102992.16;4976173;28;20394;-80
2022/04/16 02:26:22;;;;;;;19.75;12.50;;;;;;;6.10;76.48;102993.81;4959317;28;20030;-80
2022/04/16 02:28:48;;;;;;;20.10;12.02;;;;;;;6.10;76.34;102993.81;4974739;28;20058;-80
2022/04/16 02:31:14;;;;;;;18.90;12.68;;;;;;;6.09;76.46;102992.97;4975695;28;20049;-79
2022/04/16 02:33:39;;;;;;;17.23;12.02;;;;;;;6.06;76.51;102992.88;4979909;28;20038;-80
2022/04/16 02:36:05;;;;;;;18.70;11.75;;;;;;;6.03;76.43;102992.78;4975180;28;20092;-79
2022/04/16 02:38:30;;;;;;;18.15;11.98;;;;;;;6.03;76.42;102992.78;4979040;28;20031;-80
2022/04/16 02:40:56;;;;;;;19.77;12.55;;;;;;;6.01;76.69;102999.59;4975153;28;20085;-80
2022/04/16 02:43:21;;;;;;;19.67;11.88;;;;;;;5.99;77.11;103001.25;4979600;28;20458;-79
2022/04/16 02:48:30;;;;;;;19.13;11.98;;;;;;;5.98;77.19;102999.50;4981303;28;20112;-80
2022/04/16 02:50:56;;;;;;;20.02;12.13;;;;;;;5.96;76.58;103006.34;4987808;28;20458;-79
2022/04/16 02:53:21;;;;;;;17.02;11.98;;;;;;;5.96;76.95;103008.94;4977475;28;20517;-79
2022/04/16 02:55:46;;;;;;;18.17;12.27;;;;;;;5.93;76.49;103005.41;4976540;28;20066;-79
2022/04/16 02:58:12;;;;;;;17.92;11.55;;;;;;;5.93;76.91;103020.03;4977235;28;20045;-79
2022/04/16 03:00:38;;;;;;;18.83;11.85;;;;;;;5.90;76.72;103013.06;4975220;28;20440;-79
2022/04/16 03:03:03;;;;;;;18.92;11.82;;;;;;;5.89;76.79;103016.50;4979312;28;20026;-79
2022/04/16 03:05:28;;;;;;;17.60;12.40;;;;;;;5.86;76.45;103011.22;4975609;28;20026;-80
2022/04/16 03:07:54;;;;;;;21.33;12.75;;;;;;;5.86;76.93;103016.41;4981156;28;20039;-79
2022/04/16 03:10:19;;;;;;;17.02;11.48;;;;;;;5.84;76.89;103012.88;4979563;28;20034;-80
2022/04/16 03:12:51;;;;;;;18.10;12.10;;;;;;;5.80;77.30;103021.41;4983883;28;20049;-79
2022/04/16 03:18:02;;;;;;;17.55;11.77;;;;;;;5.73;77.55;103022.91;4977547;28;20037;-79
2022/04/16 03:20:29;;;;;;;17.42;11.75;;;;;;;5.72;76.97;103022.88;4979780;28;20166;-80
2022/04/16 03:22:58;;;;;;;19.08;11.82;;;;;;;5.73;77.41;103024.63;4982747;28;20043;-80
2022/04/16 03:25:23;;;;;;;18.15;12.05;;;;;;;5.72;77.25;103018.56;4984946;28;20026;-78
2022/04/16 03:27:48;;;;;;;17.65;11.88;;;;;;;5.69;77.61;103018.50;4975416;28;20015;-77
2022/04/16 03:30:14;;;;;;;17.10;11.68;;;;;;;5.70;77.35;103025.41;4956843;28;20039;-77
2022/04/16 03:32:40;;;;;;;17.15;11.38;;;;;;;5.69;77.80;103020.19;4982646;28;20422;-78
2022/04/16 03:35:07;;;;;;;19.30;12.40;;;;;;;5.70;77.27;103019.34;4959770;28;20030;-78
2022/04/16 03:37:33;;;;;;;17.85;12.18;;;;;;;5.71;77.66;103027.16;4980160;28;20031;-77
2022/04/16 03:39:58;;;;;;;18.48;12.43;;;;;;;5.71;77.60;103016.84;4980494;28;20117;-77
2022/04/16 03:42:24;;;;;;;19.08;12.50;;;;;;;5.71;77.57;103027.16;4962380;28;20416;-78
2022/04/16 03:44:49;;;;;;;20.50;12.80;;;;;;;5.71;77.65;103026.28;4977351;28;20122;-78
2022/04/16 03:47:14;;;;;;;19.55;12.60;;;;;;;5.71;77.65;103031.44;4979687;28;20023;-78
2022/04/16 03:49:40;;;;;;;19.27;12.82;;;;;;;5.69;77.32;103021.09;4979339;28;20047;-78
2022/04/16 03:52:06;;;;;;;18.50;12.60;;;;;;;5.69;77.69;103020.19;4979290;28;20474;-78
2022/04/16 04:00:03;;;;;;;21.33;13.02;;;;;;;5.68;77.48;103018.44;4979455;28;20150;-78
2022/04/16 04:02:36;;;;;;;18.05;12.32;;;;;;;5.66;77.63;103025.25;4977815;28;20146;-78
2022/04/16 04:05:02;;;;;;;19.02;12.27;;;;;;;5.65;77.86;103026.09;4977546;28;20106;-78
2022/04/16 04:07:27;;;;;;;20.10;12.55;;;;;;;5.64;77.63;103026.94;4980516;28;20179;-78
2022/04/16 04:09:53;;;;;;;19.23;13.07;;;;;;;5.64;77.57;103029.53;4976469;28;20054;-78
2022/04/16 04:12:18;;;;;;;19.65;12.65;;;;;;;5.62;77.62;103034.63;4966461;28;20022;-78
2022/04/16 04:14:45;;;;;;;20.23;12.90;;;;;;;5.61;77.37;103032.88;4977374;28;20389;-78
2022/04/16 04:17:11;;;;;;;19.42;12.93;;;;;;;5.59;77.82;103031.94;4980705;28;20031;-78
2022/04/16 04:19:39;;;;;;;21.75;13.95;;;;;;;5.56;78.31;103035.31;4977364;28;20039;-78
2022/04/16 04:22:06;;;;;;;22.08;13.45;;;;;;;5.55;78.26;103035.28;4987578;28;20139;-79
2022/04/16 04:24:32;;;;;;;21.15;13.70;;;;;;;5.54;78.34;103033.53;4977574;28;20031;-78
2022/04/16 04:26:58;;;;;;;23.10;14.27;;;;;;;5.53;78.00;103035.22;4979091;28;20038;-78
2022/04/16 04:29:23;;;;;;;21.25;14.30;;;;;;;5.52;78.43;103043.78;4978128;28;20041;-78
2022/04/16 04:31:49;;;;;;;22.60;14.27;;;;;;;5.52;78.43;103051.53;4979602;28;20026;-79
2022/04/16 04:34:15;;;;;;;21.15;13.55;;;;;;;5.50;78.49;103036.84;4981855;28;20540;-78
2022/04/16 04:36:41;;;;;;;21.52;13.68;;;;;;;5.50;78.48;103048.03;4979752;28;20029;-79
2022/04/16 04:39:06;;;;;;;22.35;13.93;;;;;;;5.50;78.66;103048.03;4975646;28;20034;-78
2022/04/16 04:41:31;;;;;;;21.13;13.48;;;;;;;5.49;78.72;103054.00;4986122;28;20035;-78
2022/04/16 04:43:57;;;;;;;21.58;14.05;;;;;;;5.49;78.72;103048.84;4979629;28;20022;-79
2022/04/16 04:46:22;;;;;;;21.42;13.77;;;;;;;5.49;78.36;103054.00;4979022;28;20031;-78
2022/04/16 04:48:47;;;;;;;21.67;13.30;;;;;;;5.51;78.52;103065.28;4976549;28;20031;-79
2022/04/16 04:51:12;;;;;;;22.67;13.90;;;;;;;5.50;78.80;103060.94;4979319;28;20113;-79
2022/04/16 04:53:38;;;;;;;22.45;13.57;;;;;;;5.50;78.53;103067.81;4977168;28;20041;-78
2022/04/16 04:56:04;;;;;;;24.38;13.95;;;;;;;5.49;78.48;103072.09;4981128;28;20042;-78
2022/04/16 04:58:29;;;;;;;22.17;13.90;;;;;;;5.49;78.72;103072.09;4978089;28;20022;-78
2022/04/16 05:00:54;;;;;;;22.13;13.07;;;;;;;5.51;78.80;103075.59;4984453;28;20041;-78
2022/04/16 05:03:19;;;;;;;22.35;14.07;;;;;;;5.50;79.15;103080.72;4969111;28;20077;-78
2022/04/16 05:05:45;;;;;;;21.52;14.27;;;;;;;5.49;78.72;103082.41;4981336;28;20371;-78
2022/04/16 05:08:10;;;;;;;21.40;13.95;;;;;;;5.50;78.92;103079.00;4979839;28;20038;-78
2022/04/16 05:10:35;;;;;;;24.20;15.10;;;;;;;5.52;78.77;103087.69;4979751;28;20421;-78
2022/04/16 05:13:01;;;;;;;21.92;14.25;;;;;;;5.52;78.63;103087.69;4980186;28;20034;-78
2022/04/16 05:15:26;;;;;;;24.20;15.57;;;;;;;5.54;78.77;103091.19;4975618;28;20058;-78
2022/04/16 05:17:51;;;;;;;23.70;14.75;;;;;;;5.57;78.66;103096.47;4979722;28;20049;-78
2022/04/16 05:20:17;;;;;;;24.02;14.18;;;;;;;5.60;78.75;103093.09;4978182;28;20430;-78
2022/04/16 05:22:42;;;;;;;23.08;14.75;;;;;;;5.60;79.29;103099.16;4985408;28;20046;-79
2022/04/16 05:25:08;;;;;;;24.20;15.18;;;;;;;5.61;79.40;103093.16;4979189;28;20129;-78
2022/04/16 05:27:34;;;;;;;24.98;15.10;;;;;;;5.64;79.64;103096.66;4981751;28;20045;-78
2022/04/16 05:30:06;;;;;;;23.13;14.88;;;;;;;5.67;79.35;103099.31;4984348;28;20033;-78
2022/04/16 05:32:34;;;;;;;21.15;14.63;;;;;;;5.70;79.61;103107.16;4976746;28;20117;-78
2022/04/16 05:34:59;;;;;;;23.92;15.57;;;;;;;5.75;79.37;103108.19;4979560;28;20109;-78
2022/04/16 05:37:25;;;;;;;24.00;15.85;;;;;;;5.78;79.45;103116.03;4978223;28;20042;-78
2022/04/16 05:39:50;;;;;;;23.52;14.82;;;;;;;5.81;79.14;103115.25;4977632;28;20031;-78
2022/04/16 05:42:15;;;;;;;25.67;16.20;;;;;;;5.83;79.56;103116.19;4981178;28;20098;-78
2022/04/16 05:44:40;;;;;;;23.55;16.05;;;;;;;5.86;79.33;103111.97;4987781;28;20473;-78
2022/04/16 05:47:06;;;;;;;23.85;15.55;;;;;;;5.92;79.70;103119.94;4973938;28;20066;-79
2022/04/16 05:49:31;;;;;;;22.92;14.98;;;;;;;5.98;79.59;103113.19;4986146;28;20061;-78
2022/04/16 05:51:56;;;;;;;24.95;15.80;;;;;;;6.03;79.42;103117.72;4981222;28;20032;-78
2022/04/16 05:54:21;;;;;;;26.90;16.30;;;;;;;6.08;79.31;103112.66;4980988;28;20030;-78
2022/04/16 05:56:47;;;;;;;23.30;15.20;;;;;;;6.14;79.61;103122.31;4975828;28;20023;-78
2022/04/16 05:59:12;;;;;;;27.38;17.08;;;;;;;6.17;79.59;103125.84;4977634;28;20058;-78
2022/04/16 06:01:37;;;;;;;26.45;16.23;;;;;;;6.20;79.63;103120.78;4978892;28;20037;-78
2022/04/16 06:04:03;;;;;;;27.77;16.30;;;;;;;6.27;79.76;103134.75;4979116;28;20070;-78
2022/04/16 06:06:28;;;;;;;26.42;16.95;;;;;;;6.32;79.79;103129.75;4978833;28;20467;-78
2022/04/16 06:08:54;;;;;;;28.80;17.13;;;;;;;6.38;79.74;103135.06;4981009;28;20037;-78
2022/04/16 06:11:20;;;;;;;27.92;17.13;;;;;;;6.42;79.78;103142.09;4979111;28;20093;-78
2022/04/16 06:13:45;;;;;;;25.08;16.00;;;;;;;6.49;79.78;103144.00;4959831;28;20058;-78
2022/04/16 06:16:11;;;;;;;28.63;17.27;;;;;;;6.55;79.84;103150.19;4961447;28;20054;-78
2022/04/16 06:18:36;;;;;;;27.02;17.80;;;;;;;6.60;80.00;103148.63;4975903;28;20053;-78
2022/04/16 06:21:01;;;;;;;26.65;17.20;;;;;;;6.64;79.89;103142.72;4982416;28;20062;-79
2022/04/16 06:23:27;;;;;;;31.45;18.00;;;;;;;6.69;80.04;103156.63;4985806;28;20120;-79
2022/04/16 06:25:52;;;;;;;28.55;17.98;;;;;;;6.75;79.47;103151.63;4976550;28;20061;-78
2022/04/16 06:28:17;;;;;;;28.65;18.02;;;;;;;6.81;79.42;103154.41;4978225;28;20469;-78
2022/04/16 06:30:42;;;;;;;30.40;18.50;;;;;;;6.87;79.67;103155.38;4982800;28;20034;-78
2022/04/16 06:33:08;;;;;;;28.88;18.45;;;;;;;6.92;79.94;103153.78;4973210;28;20038;-78
2022/04/16 06:35:33;;;;;;;31.88;19.08;;;;;;;6.97;79.55;103152.22;4984361;28;20034;-78
2022/04/16 06:37:58;;;;;;;30.17;18.67;;;;;;;7.03;80.30;103154.94;4984497;28;20036;-78
2022/04/16 06:40:24;;;;;;;28.75;17.33;;;;;;;7.11;80.35;103155.16;4974888;28;20029;-78
2022/04/16 06:42:52;;;;;;;28.65;18.65;;;;;;;7.17;79.56;103154.47;4976627;28;20434;-78
2022/04/16 06:45:17;;;;;;;29.08;18.25;;;;;;;7.22;80.00;103150.25;4963468;28;20021;-78
2022/04/16 06:47:43;;;;;;;28.15;18.08;;;;;;;7.27;79.86;103146.06;4982864;28;20105;-78
2022/04/16 06:50:09;;;;;;;29.80;18.75;;;;;;;7.32;79.65;103154.84;4976265;28;20026;-78
2022/04/16 06:52:34;;;;;;;30.42;19.08;;;;;;;7.38;79.84;103154.97;4978545;28;20022;-78
2022/04/16 06:55:00;;;;;;;29.45;18.83;;;;;;;7.43;80.03;103148.22;4977550;28;20035;-78
2022/04/16 06:57:26;;;;;;;30.77;19.25;;;;;;;7.50;80.47;103149.22;4974883;28;20029;-78
2022/04/16 06:59:52;;;;;;;31.70;19.58;;;;;;;7.57;80.06;103150.25;4978139;28;20031;-78
2022/04/16 07:02:17;;;;;;;29.55;18.92;;;;;;;7.64;80.17;103152.16;4972809;28;20095;-78
2022/04/16 07:04:43;;;;;;;30.02;18.58;;;;;;;7.69;80.24;103150.53;4985487;28;20114;-78
2022/04/16 07:07:08;;;;;;;32.75;19.55;;;;;;;7.74;79.48;103148.09;4976400;28;20030;-78
2022/04/16 07:09:38;;;;;;;31.27;18.30;;;;;;;7.81;80.00;103155.13;4978566;28;20123;-78
2022/04/16 07:12:06;;;;;;;30.80;18.45;;;;;;;7.87;79.15;103162.19;4976901;28;20023;-78
2022/04/16 07:14:31;;;;;;;28.65;18.05;;;;;;;7.92;79.50;103151.94;4978610;28;20038;-78
2022/04/16 07:16:56;;;;;;;30.23;18.75;;;;;;;7.99;79.27;103153.81;4978223;28;20031;-78
2022/04/16 07:19:22;;;;;;;28.10;18.13;;;;;;;8.05;79.87;103149.63;4992615;28;20026;-80
2022/04/16 07:21:47;;;;;;;27.42;17.52;;;;;;;8.15;79.54;103155.03;4995187;28;20047;-79
2022/04/16 07:24:12;;;;;;;29.15;17.80;;;;;;;8.20;79.03;103163.78;4982517;28;20018;-79
2022/04/16 07:26:37;;;;;;;28.25;16.17;;;;;;;8.27;78.68;103160.47;4980393;28;20161;-79
2022/04/16 07:29:03;;;;;;;28.58;18.23;;;;;;;8.33;79.34;103160.63;4986066;28;20023;-79
2022/04/16 07:31:28;;;;;;;30.08;17.67;;;;;;;8.41;78.73;103165.06;4980854;28;20387;-79
2022/04/16 07:33:53;;;;;;;28.38;18.17;;;;;;;8.46;79.58;103160.88;4978397;28;20474;-79
2022/04/16 07:36:19;;;;;;;27.20;16.80;;;;;;;8.51;78.53;103154.09;4981265;28;20023;-79
2022/04/16 07:38:44;;;;;;;27.60;17.10;;;;;;;8.59;77.37;103168.09;4977466;28;20493;-78
2022/04/16 07:41:10;;;;;;;24.45;15.80;;;;;;;8.61;77.10;103165.53;4978711;28;20032;-78
2022/04/16 07:43:36;;;;;;;26.38;16.90;;;;;;;8.60;77.19;103164.66;4978567;28;20034;-79
2022/04/16 07:46:01;;;;;;;28.05;17.10;;;;;;;8.65;77.35;103169.91;4982153;28;20031;-79
2022/04/16 07:48:26;;;;;;;25.48;16.17;;;;;;;8.70;78.13;103165.72;4978325;28;20039;-78
2022/04/16 07:50:51;;;;;;;25.88;16.17;;;;;;;8.75;76.61;103163.19;4987555;28;20033;-78
2022/04/16 07:53:17;;;;;;;26.77;16.48;;;;;;;8.78;77.48;103165.84;4960784;28;20030;-78
2022/04/16 07:55:42;;;;;;;26.50;16.58;;;;;;;8.84;76.22;103172.88;4981495;28;20034;-79
2022/04/16 07:58:07;;;;;;;24.52;15.48;;;;;;;8.88;76.87;103159.13;4988045;28;20058;-79
2022/04/16 08:00:33;;;;;;;25.17;15.93;;;;;;;8.94;76.81;103162.69;4984100;28;20085;-79
2022/04/16 08:02:58;;;;;;;27.70;16.02;;;;;;;9.03;78.00;103161.13;4986354;28;20085;-79
2022/04/16 08:05:23;;;;;;;24.80;15.52;;;;;;;9.10;75.96;103162.97;4986405;28;20028;-79
2022/04/16 08:07:49;;;;;;;24.40;14.57;;;;;;;9.13;76.03;103165.63;4987254;28;20101;-79
2022/04/16 08:10:15;;;;;;;21.65;13.18;;;;;;;9.19;77.00;103165.75;4984309;28;20026;-79
2022/04/16 08:12:40;;;;;;;23.77;13.82;;;;;;;9.27;76.98;103168.50;4986351;28;20516;-79
2022/04/16 08:15:06;;;;;;;20.38;12.95;;;;;;;9.33;76.23;103168.56;4987443;28;20113;-79
2022/04/16 08:17:32;;;;;;;19.02;13.18;;;;;;;9.42;76.19;103170.44;4986474;28;20053;-80
2022/04/16 08:19:57;;;;;;;20.98;13.35;;;;;;;9.48;75.05;103178.34;4985350;28;20033;-79
2022/04/16 08:22:22;;;;;;;21.20;13.60;;;;;;;9.54;76.04;103170.69;4985885;28;20138;-79
2022/04/16 08:25:43;;;;;;;19.48;12.13;;;;;;;9.63;75.28;103171.66;4985828;28;20038;-79
2022/04/16 08:27:39;;;;;;;20.42;13.25;;;;;;;9.70;75.18;103173.50;4983662;28;20468;-79
2022/04/16 08:30:04;;;;;;;20.65;13.10;;;;;;;9.75;74.97;103171.84;4986233;28;20030;-79
2022/04/16 08:32:35;;;;;;;19.63;13.35;;;;;;;9.79;75.18;103177.97;4982246;28;20083;-79
2022/04/16 08:35:00;;;;;;;21.73;13.38;;;;;;;9.83;73.85;103183.25;4983810;28;20038;-79
2022/04/16 08:37:25;;;;;;;22.50;13.60;;;;;;;9.86;74.43;103175.50;4983957;28;20113;-79
2022/04/16 08:39:50;;;;;;;20.70;13.63;;;;;;;9.92;73.96;103179.91;4984178;28;20083;-79
2022/04/16 08:42:16;;;;;;;20.17;12.88;;;;;;;9.96;73.47;103180.81;4985496;28;20037;-79
2022/04/16 08:44:42;;;;;;;21.02;13.45;;;;;;;10.00;72.25;103185.22;4982836;28;20129;-79
2022/04/16 08:47:09;;;;;;;19.92;12.85;;;;;;;10.02;72.04;103171.38;4984373;28;20038;-79
2022/04/16 08:49:34;;;;;;;18.38;12.63;;;;;;;10.06;72.39;103177.50;4980350;28;20497;-78
2022/04/16 08:52:02;;;;;;;17.13;11.35;;;;;;;10.09;70.56;103180.13;4964742;28;20048;-78
2022/04/16 08:54:27;;;;;;;17.70;11.18;;;;;;;10.10;70.17;103184.47;4982457;28;20044;-78
2022/04/16 08:56:53;;;;;;;17.70;11.40;;;;;;;10.13;70.83;103181.06;4987028;28;20381;-79
2022/04/16 08:59:18;;;;;;;16.23;10.82;;;;;;;10.18;70.26;103172.47;4984169;28;20039;-79
2022/04/16 09:01:43;;;;;;;16.13;10.85;;;;;;;10.23;71.01;103175.13;4985345;28;20470;-79
2022/04/16 09:04:21;;;;;;;14.00;10.40;;;;;;;10.31;72.43;103177.84;4983317;28;20057;-79
2022/04/16 09:07:02;;;;;;;16.00;10.95;;;;;;;10.39;71.11;103184.06;4987091;28;20026;-79
2022/04/16 09:09:29;;;;;;;17.02;11.13;;;;;;;10.45;69.51;103178.06;4985830;28;20045;-79
2022/04/16 09:11:55;;;;;;;14.30;10.02;;;;;;;10.46;70.11;103177.19;4987744;28;20485;-79
2022/04/16 09:14:32;;;;;;;15.90;10.27;;;;;;;10.50;70.12;103183.31;4985761;28;20034;-79
2022/04/16 09:16:57;;;;;;;15.15;10.20;;;;;;;10.53;70.68;103167.72;4985415;28;20220;-79
2022/04/16 09:19:28;;;;;;;17.13;11.18;;;;;;;10.56;69.37;103181.66;4987364;28;20034;-79
2022/04/16 09:21:54;;;;;;;14.82;9.52;;;;;;;10.59;68.96;103178.22;4985898;28;20490;-79
2022/04/16 09:24:19;;;;;;;13.32;9.02;;;;;;;10.61;68.38;103181.69;4970499;28;20450;-79
2022/04/16 09:26:48;;;;;;;13.05;8.57;;;;;;;10.63;67.00;103180.00;4987722;28;20097;-78
2022/04/16 09:29:14;;;;;;;12.85;7.97;;;;;;;10.68;66.75;103174.81;4984175;28;20113;-78
2022/04/16 09:31:43;;;;;;;12.20;7.88;;;;;;;10.71;65.87;103172.28;4981415;28;21299;-79
2022/04/16 09:34:19;;;;;;;12.02;8.27;;;;;;;10.77;67.77;103170.59;4982453;28;20450;-78
2022/04/16 09:36:46;;;;;;;11.40;8.00;;;;;;;10.83;67.43;103171.53;4984856;28;20029;-78
2022/04/16 09:39:13;;;;;;;11.35;7.68;;;;;;;10.89;68.13;103171.63;4950571;28;20033;-79
2022/04/16 09:41:40;;;;;;;10.70;7.38;;;;;;;10.93;65.18;103168.19;4984651;28;20038;-79
2022/04/16 09:44:28;;;;;;;11.18;7.65;;;;;;;10.98;67.12;103166.47;4984038;28;20096;-78
2022/04/16 09:46:55;;;;;;;11.55;7.50;;;;;;;11.02;65.05;103163.06;4968358;28;20561;-78
2022/04/16 09:49:21;;;;;;;11.60;7.20;;;;;;;11.06;63.52;103164.84;4970139;28;20392;-79
2022/04/16 09:51:47;;;;;;;8.70;6.30;;;;;;;11.07;62.35;103171.81;4987342;28;20599;-79
2022/04/16 09:54:14;;;;;;;9.00;5.90;;;;;;;11.12;62.89;103163.13;4985432;28;20034;-78
2022/04/16 09:56:41;;;;;;;8.20;5.43;;;;;;;11.15;62.51;103152.75;4983400;28;20085;-79
2022/04/16 09:59:12;;;;;;;8.05;5.60;;;;;;;11.22;62.81;103155.41;4984108;28;20160;-79
2022/04/16 10:01:38;;;;;;;7.32;5.30;;;;;;;11.33;60.12;103165.09;4983228;28;20422;-79
2022/04/16 10:04:06;;;;;;;10.15;6.55;;;;;;;11.39;61.92;103158.19;4981461;28;20049;-81
2022/04/16 10:06:31;;;;;;;6.53;4.60;;;;;;;11.48;61.29;103161.72;4982267;28;20065;-81
2022/04/16 10:09:01;;;;;;;5.80;3.97;;;;;;;11.56;58.88;103160.03;4984333;28;20076;-80
2022/04/16 10:14:22;;;;;;;7.97;3.95;;;;;;;11.71;59.63;103153.19;4985747;28;20432;-80
2022/04/16 10:17:08;;;;;;;4.00;2.70;;;;;;;11.75;59.44;103154.97;4982005;28;20516;-81
2022/04/16 10:19:40;;;;;;;5.50;3.72;;;;;;;11.75;57.24;103144.53;4983587;28;20030;-80
2022/04/16 10:22:06;;;;;;;7.03;4.57;;;;;;;11.76;59.52;103146.28;4984751;28;20121;-80
2022/04/16 10:24:31;;;;;;;6.53;4.82;;;;;;;11.80;58.15;103137.59;4984328;28;20069;-79
2022/04/16 10:27:04;;;;;;;10.15;5.05;;;;;;;11.81;61.09;103139.34;4983824;28;20117;-80
2022/04/16 10:29:37;;;;;;;5.88;4.18;;;;;;;11.86;59.58;103137.63;4984268;28;20383;-81
2022/04/16 10:32:14;;;;;;;4.25;2.65;;;;;;;11.88;57.70;103137.63;4983272;28;20069;-79
2022/04/16 10:34:40;;;;;;;5.05;3.50;;;;;;;11.86;57.07;103137.63;4984373;28;20788;-80
2022/04/16 10:37:07;;;;;;;6.35;4.68;;;;;;;11.94;59.43;103140.28;4980686;28;20038;-77
2022/04/16 10:39:35;;;;;;;6.00;3.97;;;;;;;11.97;55.89;103145.53;4983979;28;20026;-77
2022/04/16 10:42:05;;;;;;;5.57;4.03;;;;;;;11.98;57.31;103142.94;4984382;28;20045;-78
2022/04/16 10:44:43;;;;;;;6.32;4.40;;;;;;;12.04;58.66;103141.25;4983489;28;21206;-77
2022/04/16 10:47:12;;;;;;;6.03;4.30;;;;;;;12.10;56.91;103141.28;4981862;28;20074;-76
2022/04/16 10:49:41;;;;;;;6.38;4.57;;;;;;;12.15;56.78;103147.38;4983035;28;20508;-77
2022/04/16 10:52:28;;;;;;;8.10;4.90;;;;;;;12.22;57.88;103141.34;4981919;28;20042;-76
2022/04/16 10:55:01;;;;;;;6.32;4.50;;;;;;;12.34;57.76;103143.13;4960387;28;21006;-78
2022/04/16 10:57:27;;;;;;;6.03;4.63;;;;;;;12.45;57.83;103143.19;4979505;28;20038;-77
2022/04/16 10:59:59;;;;;;;7.45;5.15;;;;;;;12.55;59.49;103142.34;4966038;28;20466;-78
2022/04/16 11:02:26;;;;;;;6.40;4.82;;;;;;;12.63;57.86;103141.50;4983145;28;20045;-78
2022/04/16 11:05:11;;;;;;;6.18;4.50;;;;;;;12.70;59.04;103140.63;4984081;28;20030;-78
2022/04/16 11:07:38;;;;;;;7.03;4.60;;;;;;;12.78;57.62;103146.75;4982363;28;20081;-81
2022/04/16 11:10:05;;;;;;;6.70;5.00;;;;;;;12.80;57.42;103139.78;4984509;28;20039;-79
2022/04/16 11:12:30;;;;;;;7.95;5.20;;;;;;;12.82;56.93;103131.94;4962741;28;20034;-79
2022/04/16 11:14:55;;;;;;;6.68;5.03;;;;;;;12.82;57.28;103138.03;4982701;28;20045;-80
2022/04/16 11:17:21;;;;;;;6.90;4.68;;;;;;;12.87;57.72;103136.31;4983050;28;20109;-79
2022/04/16 11:20:07;;;;;;;7.60;4.50;;;;;;;12.85;58.53;103143.25;4964578;28;20130;-79
2022/04/16 11:22:33;;;;;;;8.30;5.22;;;;;;;12.84;57.12;103140.66;4981203;28;20050;-84
2022/04/16 11:25:05;;;;;;;8.88;5.65;;;;;;;12.93;57.48;103131.97;4983199;28;20281;-78
2022/04/16 11:35:59;;;;;;;8.07;4.70;;;;;;;13.17;56.33;103134.56;4981940;28;20458;-78
2022/04/16 11:38:35;;;;;;;11.90;5.15;;;;;;;13.28;56.40;103138.97;4980432;28;20042;-80
2022/04/16 11:41:04;;;;;;;7.82;5.25;;;;;;;13.39;54.10;103134.59;4966928;28;20125;-78